createdAt,value
2017-09-08T00:00:58.000Z,44.49
2017-09-08T00:02:06.596Z,44.59
2017-09-08T00:03:15.195Z,44.87
2017-09-08T00:04:23.793Z,44.49
2017-09-08T00:05:32.392Z,44.59
2017-09-08T00:06:40.988Z,44.49
2017-09-08T00:07:49.901Z,44.97
2017-09-08T00:08:58.500Z,44.97
2017-09-08T00:10:07.097Z,44.56
2017-09-08T00:11:15.690Z,44.59
2017-09-08T00:12:24.287Z,45.04
2017-09-08T00:13:32.886Z,44.59
2017-09-08T00:14:41.788Z,44.46
2017-09-08T00:15:50.382Z,44.95
2017-09-08T00:16:58.978Z,44.68
2017-09-08T00:18:07.576Z,44.87
2017-09-08T00:19:16.169Z,45.04
2017-09-08T00:20:24.768Z,44.46
2017-09-08T00:21:33.361Z,44.95
2017-09-08T00:22:41.959Z,44.95
2017-09-08T00:23:50.559Z,44.85
2017-09-08T00:24:59.154Z,44.46
2017-09-08T00:26:07.756Z,44.56
2017-09-08T00:27:16.356Z,44.85
2017-09-08T00:28:24.952Z,44.76
2017-09-08T00:29:33.551Z,44.76
2017-09-08T00:30:42.149Z,44.46
2017-09-08T00:31:50.749Z,44.37
2017-09-08T00:32:59.350Z,45.04
2017-09-08T00:34:07.952Z,44.56
2017-09-08T00:35:16.546Z,44.76
2017-09-08T00:36:25.444Z,44.95
2017-09-08T00:37:34.042Z,44.76
2017-09-08T00:38:42.641Z,44.85
2017-09-08T00:39:51.240Z,44.56
2017-09-08T00:40:59.836Z,44.76
2017-09-08T00:42:08.433Z,44.56
2017-09-08T00:43:17.029Z,44.76
2017-09-08T00:44:25.628Z,44.95
2017-09-08T00:45:34.226Z,44.85
2017-09-08T00:46:43.129Z,44.76
2017-09-08T00:47:51.728Z,45.04
2017-09-08T00:49:00.330Z,44.76
2017-09-08T00:50:08.929Z,44.85
2017-09-08T00:51:17.534Z,44.76
2017-09-08T00:52:26.133Z,44.76
2017-09-08T00:53:34.732Z,44.76
2017-09-08T00:54:43.332Z,44.95
2017-09-08T00:55:51.928Z,44.85
2017-09-08T00:57:00.524Z,44.66
2017-09-08T00:58:09.120Z,44.46
2017-09-08T00:59:17.721Z,44.76
2017-09-08T01:00:26.316Z,44.66
2017-09-08T01:01:35.222Z,44.76
2017-09-08T01:02:43.815Z,44.76
2017-09-08T01:03:52.417Z,44.95
2017-09-08T01:05:01.017Z,45.04
2017-09-08T01:06:09.923Z,44.66
2017-09-08T01:07:18.825Z,44.95
2017-09-08T01:08:27.424Z,44.85
2017-09-08T01:09:36.026Z,44.76
2017-09-08T01:10:44.627Z,44.85
2017-09-08T01:11:53.226Z,44.76
2017-09-08T01:13:01.823Z,44.85
2017-09-08T01:14:10.423Z,44.76
2017-09-08T01:15:19.023Z,44.56
2017-09-08T01:16:27.628Z,44.76
2017-09-08T01:17:36.228Z,44.76
2017-09-08T01:18:44.829Z,44.85
2017-09-08T01:19:53.434Z,45.04
2017-09-08T01:21:02.034Z,44.85
2017-09-08T01:22:10.631Z,44.76
2017-09-08T01:23:19.228Z,44.56
2017-09-08T01:24:27.827Z,45.04
2017-09-08T01:25:36.425Z,44.95
2017-09-08T01:26:45.025Z,44.85
2017-09-08T01:27:53.626Z,44.85
2017-09-08T01:29:02.228Z,44.85
2017-09-08T01:30:10.826Z,44.76
2017-09-08T01:31:19.428Z,44.56
2017-09-08T01:32:28.031Z,44.56
2017-09-08T01:33:36.631Z,44.76
2017-09-08T01:34:45.227Z,44.95
2017-09-08T01:35:53.826Z,44.76
2017-09-08T01:37:02.425Z,44.76
2017-09-08T01:38:11.022Z,44.85
2017-09-08T01:39:19.623Z,44.95
2017-09-08T01:40:28.223Z,44.95
2017-09-08T01:41:36.821Z,44.56
2017-09-08T01:42:45.419Z,44.85
2017-09-08T01:43:54.021Z,44.56
2017-09-08T01:45:02.622Z,44.76
2017-09-08T01:46:11.221Z,44.95
2017-09-08T01:47:19.817Z,44.95
2017-09-08T01:48:28.725Z,45.04
2017-09-08T01:49:37.326Z,44.46
2017-09-08T01:50:45.928Z,44.95
2017-09-08T01:51:54.837Z,45.04
2017-09-08T01:53:03.439Z,44.85
2017-09-08T01:54:12.040Z,44.95
2017-09-08T01:55:20.637Z,44.76
2017-09-08T01:56:29.236Z,44.56
2017-09-08T01:57:37.835Z,44.37
2017-09-08T01:58:46.434Z,44.46
2017-09-08T01:59:55.032Z,45.04
2017-09-08T02:01:03.633Z,44.56
2017-09-08T02:02:12.538Z,44.85
2017-09-08T02:03:21.137Z,44.85
2017-09-08T02:04:29.736Z,44.85
2017-09-08T02:05:38.337Z,45.04
2017-09-08T02:06:46.939Z,44.56
2017-09-08T02:07:55.536Z,44.95
2017-09-08T02:09:04.449Z,44.95
2017-09-08T02:10:13.047Z,44.76
2017-09-08T02:11:21.651Z,44.76
2017-09-08T02:12:30.251Z,44.56
2017-09-08T02:13:38.850Z,44.46
2017-09-08T02:14:47.448Z,44.66
2017-09-08T02:15:56.055Z,44.66
2017-09-08T02:17:04.656Z,44.85
2017-09-08T02:18:13.254Z,44.37
2017-09-08T02:19:21.853Z,44.56
2017-09-08T02:20:30.449Z,44.46
2017-09-08T02:21:39.049Z,44.95
2017-09-08T02:22:47.952Z,44.95
2017-09-08T02:23:56.549Z,44.46
2017-09-08T02:25:05.148Z,44.95
2017-09-08T02:26:13.750Z,44.37
2017-09-08T02:27:22.355Z,44.76
2017-09-08T02:28:31.258Z,44.95
2017-09-08T02:29:39.859Z,44.95
2017-09-08T02:30:48.456Z,44.56
2017-09-08T02:31:57.054Z,44.95
2017-09-08T02:33:05.651Z,44.76
2017-09-08T02:34:14.249Z,44.85
2017-09-08T02:35:22.847Z,44.85
2017-09-08T02:36:31.445Z,44.46
2017-09-08T02:37:40.046Z,44.37
2017-09-08T02:38:48.650Z,44.95
2017-09-08T02:39:57.247Z,44.56
2017-09-08T02:41:06.153Z,44.76
2017-09-08T02:42:15.053Z,44.95
2017-09-08T02:43:23.650Z,44.85
2017-09-08T02:44:32.256Z,44.95
2017-09-08T02:45:40.847Z,44.76
2017-09-08T02:46:49.444Z,44.95
2017-09-08T02:47:58.042Z,45.04
2017-09-08T02:49:06.643Z,44.56
2017-09-08T02:50:15.241Z,45.04
2017-09-08T02:51:23.843Z,44.56
2017-09-08T02:52:32.442Z,44.56
2017-09-08T02:53:41.041Z,44.85
2017-09-08T02:54:49.640Z,44.56
2017-09-08T02:55:58.237Z,44.85
2017-09-08T02:57:06.836Z,44.56
2017-09-08T02:58:15.436Z,44.95
2017-09-08T02:59:24.036Z,44.37
2017-09-08T03:00:32.631Z,44.85
2017-09-08T03:01:41.231Z,44.95
2017-09-08T03:02:49.830Z,44.95
2017-09-08T03:03:58.427Z,44.85
2017-09-08T03:05:07.332Z,44.85
2017-09-08T03:06:15.932Z,44.56
2017-09-08T03:07:24.529Z,44.76
2017-09-08T03:08:33.127Z,44.46
2017-09-08T03:09:41.724Z,44.76
2017-09-08T03:10:50.321Z,44.95
2017-09-08T03:11:58.921Z,44.56
2017-09-08T03:13:07.827Z,44.95
2017-09-08T03:14:16.728Z,44.66
2017-09-08T03:15:25.328Z,44.56
2017-09-08T03:16:33.927Z,44.95
2017-09-08T03:17:42.524Z,44.85
2017-09-08T03:18:51.126Z,44.85
2017-09-08T03:19:59.725Z,44.56
2017-09-08T03:21:08.325Z,44.85
2017-09-08T03:22:16.922Z,44.95
2017-09-08T03:23:25.519Z,44.66
2017-09-08T03:24:34.117Z,44.46
2017-09-08T03:25:42.714Z,44.46
2017-09-08T03:26:51.313Z,44.95
2017-09-08T03:27:59.911Z,44.66
2017-09-08T03:29:08.511Z,44.76
2017-09-08T03:30:17.109Z,44.85
2017-09-08T03:31:25.713Z,44.95
2017-09-08T03:32:34.313Z,44.27
2017-09-08T03:33:42.911Z,44.46
2017-09-08T03:34:51.510Z,44.56
2017-09-08T03:36:00.109Z,44.56
2017-09-08T03:37:08.706Z,44.85
2017-09-08T03:38:17.307Z,44.95
2017-09-08T03:39:25.905Z,44.85
2017-09-08T03:40:34.508Z,44.85
2017-09-08T03:41:43.105Z,44.56
2017-09-08T03:42:51.703Z,44.76
2017-09-08T03:44:00.303Z,44.76
2017-09-08T03:45:08.901Z,44.56
2017-09-08T03:46:17.503Z,44.95
2017-09-08T03:47:26.139Z,44.85
2017-09-08T03:48:34.701Z,44.76
2017-09-08T03:49:43.302Z,44.76
2017-09-08T03:50:51.898Z,44.95
2017-09-08T03:52:00.494Z,44.85
2017-09-08T03:53:09.093Z,44.85
2017-09-08T03:54:17.695Z,44.95
2017-09-08T03:55:26.295Z,44.73
2017-09-08T03:56:34.891Z,44.95
2017-09-08T03:57:43.492Z,44.95
2017-09-08T03:58:52.093Z,44.76
2017-09-08T04:00:00.691Z,44.73
2017-09-08T04:01:09.290Z,44.56
2017-09-08T04:02:17.887Z,45.04
2017-09-08T04:03:26.487Z,44.73
2017-09-08T04:04:35.089Z,44.46
2017-09-08T04:05:43.987Z,44.76
2017-09-08T04:06:52.584Z,45.03
2017-09-08T04:08:01.181Z,44.95
2017-09-08T04:09:09.783Z,44.93
2017-09-08T04:10:18.385Z,44.73
2017-09-08T04:11:26.985Z,44.95
2017-09-08T04:12:35.584Z,44.73
2017-09-08T04:13:44.186Z,44.93
2017-09-08T04:14:52.789Z,44.64
2017-09-08T04:16:01.388Z,44.85
2017-09-08T04:17:09.986Z,44.73
2017-09-08T04:18:18.582Z,44.85
2017-09-08T04:19:27.181Z,44.73
2017-09-08T04:20:35.778Z,44.93
2017-09-08T04:21:44.376Z,44.73
2017-09-08T04:22:52.974Z,44.93
2017-09-08T04:24:01.574Z,44.66
2017-09-08T04:25:10.172Z,44.66
2017-09-08T04:26:18.771Z,44.66
2017-09-08T04:27:27.372Z,44.73
2017-09-08T04:28:35.976Z,44.95
2017-09-08T04:29:44.574Z,44.85
2017-09-08T04:30:53.176Z,44.95
2017-09-08T04:32:01.777Z,44.45
2017-09-08T04:33:10.380Z,44.66
2017-09-08T04:34:18.976Z,44.56
2017-09-08T04:35:27.576Z,44.56
2017-09-08T04:36:36.181Z,44.76
2017-09-08T04:37:44.779Z,44.56
2017-09-08T04:38:53.379Z,44.66
2017-09-08T04:40:01.979Z,44.76
2017-09-08T04:41:10.576Z,44.85
2017-09-08T04:42:19.174Z,44.95
2017-09-08T04:43:27.774Z,44.66
2017-09-08T04:44:36.375Z,44.66
2017-09-08T04:45:44.971Z,44.85
2017-09-08T04:46:53.569Z,44.56
2017-09-08T04:48:02.168Z,44.56
2017-09-08T04:49:10.770Z,44.46
2017-09-08T04:50:19.372Z,44.95
2017-09-08T04:51:27.970Z,44.76
2017-09-08T04:52:36.574Z,44.76
2017-09-08T04:53:45.176Z,44.76
2017-09-08T04:54:53.810Z,44.95
2017-09-08T04:56:02.391Z,44.95
2017-09-08T04:57:10.989Z,44.85
2017-09-08T04:58:19.590Z,44.56
2017-09-08T04:59:28.195Z,44.56
2017-09-08T05:00:36.794Z,44.56
2017-09-08T05:01:45.393Z,44.56
2017-09-08T05:02:53.994Z,44.56
2017-09-08T05:04:02.596Z,44.76
2017-09-08T05:05:11.197Z,44.56
2017-09-08T05:06:19.797Z,44.76
2017-09-08T05:07:28.397Z,44.76
2017-09-08T05:08:36.994Z,44.76
2017-09-08T05:09:45.594Z,44.46
2017-09-08T05:10:54.195Z,44.76
2017-09-08T05:12:02.797Z,44.46
2017-09-08T05:13:11.398Z,44.76
2017-09-08T05:14:19.998Z,44.46
2017-09-08T05:15:28.599Z,44.76
2017-09-08T05:16:37.201Z,44.66
2017-09-08T05:17:45.798Z,44.46
2017-09-08T05:18:54.395Z,44.76
2017-09-08T05:20:03.295Z,44.66
2017-09-08T05:21:11.894Z,44.66
2017-09-08T05:22:20.493Z,44.66
2017-09-08T05:23:29.093Z,44.56
2017-09-08T05:24:37.721Z,44.56
2017-09-08T05:25:46.298Z,44.66
2017-09-08T05:26:54.900Z,44.18
2017-09-08T05:28:03.499Z,44.66
2017-09-08T05:29:12.101Z,44.56
2017-09-08T05:30:20.703Z,44.46
2017-09-08T05:31:29.300Z,44.46
2017-09-08T05:32:37.903Z,44.66
2017-09-08T05:33:46.506Z,44.56
2017-09-08T05:34:55.107Z,44.76
2017-09-08T05:36:03.707Z,44.18
2017-09-08T05:37:12.307Z,44.66
2017-09-08T05:38:21.209Z,44.37
2017-09-08T05:39:29.807Z,44.37
2017-09-08T05:40:38.407Z,44.37
2017-09-08T05:41:47.004Z,44.76
2017-09-08T05:42:55.605Z,44.27
2017-09-08T05:44:04.206Z,44.46
2017-09-08T05:45:12.805Z,44.46
2017-09-08T05:46:21.402Z,44.66
2017-09-08T05:47:30.004Z,44.18
2017-09-08T05:48:38.606Z,44.27
2017-09-08T05:49:47.203Z,44.18
2017-09-08T05:50:55.802Z,44.18
2017-09-08T05:52:04.403Z,44.08
2017-09-08T05:53:13.002Z,44.85
2017-09-08T05:54:21.601Z,43.89
2017-09-08T05:55:30.204Z,44.46
2017-09-08T05:56:38.805Z,44.37
2017-09-08T05:57:47.406Z,44.18
2017-09-08T05:58:56.007Z,43.98
2017-09-08T06:00:04.606Z,44.18
2017-09-08T06:01:13.209Z,44.27
2017-09-08T06:02:21.807Z,44.37
2017-09-08T06:03:30.715Z,44.39
2017-09-08T06:04:39.316Z,44.46
2017-09-08T06:05:47.915Z,44.46
2017-09-08T06:06:56.515Z,44.49
2017-09-08T06:08:05.116Z,44.29
2017-09-08T06:09:13.713Z,44.2
2017-09-08T06:10:22.311Z,44.46
2017-09-08T06:11:30.908Z,44.2
2017-09-08T06:12:39.506Z,44.2
2017-09-08T06:13:48.103Z,44.59
2017-09-08T06:14:56.700Z,44.49
2017-09-08T06:16:05.300Z,44.2
2017-09-08T06:17:13.900Z,44.59
2017-09-08T06:18:22.501Z,44.39
2017-09-08T06:19:31.100Z,44.01
2017-09-08T06:20:39.697Z,44.39
2017-09-08T06:21:48.293Z,44.39
2017-09-08T06:22:56.890Z,44.29
2017-09-08T06:24:05.487Z,44.2
2017-09-08T06:25:14.085Z,43.81
2017-09-08T06:26:22.683Z,44.2
2017-09-08T06:27:31.283Z,43.91
2017-09-08T06:28:39.884Z,43.91
2017-09-08T06:29:48.479Z,43.91
2017-09-08T06:30:57.078Z,44.2
2017-09-08T06:32:05.678Z,44.1
2017-09-08T06:33:14.276Z,44.1
2017-09-08T06:34:22.874Z,44.2
2017-09-08T06:35:31.475Z,44.1
2017-09-08T06:36:40.072Z,44.2
2017-09-08T06:37:48.978Z,44.2
2017-09-08T06:38:57.577Z,44.1
2017-09-08T06:40:06.177Z,44.1
2017-09-08T06:41:14.776Z,44.2
2017-09-08T06:42:23.374Z,44.29
2017-09-08T06:43:31.974Z,44.01
2017-09-08T06:44:40.639Z,44.2
2017-09-08T06:45:49.272Z,44.1
2017-09-08T06:46:57.871Z,44.39
2017-09-08T06:48:06.468Z,43.81
2017-09-08T06:49:15.069Z,43.91
2017-09-08T06:50:23.666Z,44.01
2017-09-08T06:51:32.264Z,44.39
2017-09-08T06:52:40.862Z,44.39
2017-09-08T06:53:49.462Z,43.81
2017-09-08T06:54:58.059Z,43.91
2017-09-08T06:56:06.660Z,44.49
2017-09-08T06:57:15.261Z,43.81
2017-09-08T06:58:23.858Z,43.72
2017-09-08T06:59:32.457Z,44.01
2017-09-08T07:00:41.054Z,43.91
2017-09-08T07:01:49.655Z,43.91
2017-09-08T07:02:58.252Z,44.01
2017-09-08T07:04:06.851Z,43.91
2017-09-08T07:05:15.455Z,44.01
2017-09-08T07:06:24.052Z,43.81
2017-09-08T07:07:32.655Z,43.81
2017-09-08T07:08:41.253Z,43.81
2017-09-08T07:09:49.853Z,43.91
2017-09-08T07:10:58.450Z,44.29
2017-09-08T07:12:07.292Z,44.29
2017-09-08T07:13:15.892Z,44.01
2017-09-08T07:14:24.492Z,44.2
2017-09-08T07:15:33.091Z,44.01
2017-09-08T07:16:41.689Z,44.01
2017-09-08T07:17:50.289Z,44.01
2017-09-08T07:18:58.887Z,43.72
2017-09-08T07:20:07.487Z,43.81
2017-09-08T07:21:16.087Z,43.72
2017-09-08T07:22:24.687Z,44.1
2017-09-08T07:23:33.286Z,43.91
2017-09-08T07:24:41.886Z,43.91
2017-09-08T07:25:50.485Z,44.2
2017-09-08T07:26:59.085Z,43.72
2017-09-08T07:28:07.689Z,44.2
2017-09-08T07:29:16.289Z,43.91
2017-09-08T07:30:24.891Z,44.01
2017-09-08T07:31:33.493Z,43.91
2017-09-08T07:32:42.100Z,43.62
2017-09-08T07:33:51.008Z,43.91
2017-09-08T07:34:59.648Z,44.01
2017-09-08T07:36:08.253Z,43.91
2017-09-08T07:37:16.853Z,43.91
2017-09-08T07:38:25.540Z,43.91
2017-09-08T07:39:34.141Z,43.91
2017-09-08T07:40:42.744Z,43.62
2017-09-08T07:41:51.342Z,43.62
2017-09-08T07:42:59.982Z,43.43
2017-09-08T07:44:08.580Z,43.52
2017-09-08T07:45:17.211Z,43.43
2017-09-08T07:46:25.809Z,43.72
2017-09-08T07:47:34.413Z,43.24
2017-09-08T07:48:43.013Z,43.81
2017-09-08T07:49:51.613Z,43.52
2017-09-08T07:51:00.209Z,43.91
2017-09-08T07:52:08.809Z,43.24
2017-09-08T07:53:17.411Z,43.52
2017-09-08T07:54:26.009Z,43.43
2017-09-08T07:55:34.612Z,43.24
2017-09-08T07:56:43.209Z,43.24
2017-09-08T07:57:51.810Z,42.85
2017-09-08T07:59:00.410Z,42.85
2017-09-08T08:00:09.009Z,43.16
2017-09-08T08:01:17.608Z,42.46
2017-09-08T08:02:26.266Z,43.14
2017-09-08T08:03:34.923Z,42.68
2017-09-08T08:04:43.572Z,42.77
2017-09-08T08:05:52.219Z,42.68
2017-09-08T08:07:00.821Z,42.77
2017-09-08T08:08:09.762Z,42.87
2017-09-08T08:09:18.375Z,42.39
2017-09-08T08:10:26.976Z,42.39
2017-09-08T08:11:35.664Z,42.87
2017-09-08T08:12:44.318Z,42.87
2017-09-08T08:13:52.919Z,42.39
2017-09-08T08:15:01.523Z,42.97
2017-09-08T08:16:10.121Z,42.39
2017-09-08T08:17:18.722Z,42.39
2017-09-08T08:18:27.321Z,42.39
2017-09-08T08:19:35.921Z,42.39
2017-09-08T08:20:44.525Z,42.77
2017-09-08T08:21:53.123Z,42.58
2017-09-08T08:23:01.724Z,42.39
2017-09-08T08:24:10.324Z,42.48
2017-09-08T08:25:18.923Z,42.36
2017-09-08T08:26:27.525Z,42.48
2017-09-08T08:27:36.136Z,42.58
2017-09-08T08:28:44.739Z,42.48
2017-09-08T08:29:53.341Z,42.48
2017-09-08T08:31:01.939Z,42.39
2017-09-08T08:32:10.539Z,42.48
2017-09-08T08:33:19.143Z,42.58
2017-09-08T08:34:27.794Z,42.58
2017-09-08T08:35:36.393Z,42.58
2017-09-08T08:36:44.991Z,42.58
2017-09-08T08:37:53.901Z,42.48
2017-09-08T08:39:02.501Z,42.48
2017-09-08T08:40:11.404Z,42.56
2017-09-08T08:41:20.009Z,42.48
2017-09-08T08:42:28.909Z,42.58
2017-09-08T08:43:37.508Z,42.39
2017-09-08T08:44:46.418Z,42.39
2017-09-08T08:45:55.016Z,42.48
2017-09-08T08:47:03.625Z,42.39
2017-09-08T08:48:12.225Z,42.58
2017-09-08T08:49:20.828Z,42.48
2017-09-08T08:50:29.426Z,42.58
2017-09-08T08:51:38.024Z,42.58
2017-09-08T08:52:46.622Z,42.58
2017-09-08T08:53:55.221Z,42.39
2017-09-08T08:55:03.822Z,42.48
2017-09-08T08:56:12.427Z,42.58
2017-09-08T08:57:21.025Z,42.48
2017-09-08T08:58:29.623Z,42.58
2017-09-08T08:59:38.226Z,42.29
2017-09-08T09:00:46.826Z,42.48
2017-09-08T09:01:55.424Z,42.48
2017-09-08T09:03:04.053Z,42.48
2017-09-08T09:04:12.657Z,42.29
2017-09-08T09:05:21.259Z,42.29
2017-09-08T09:06:29.857Z,42.58
2017-09-08T09:07:38.456Z,42.29
2017-09-08T09:08:47.056Z,42.48
2017-09-08T09:09:55.655Z,42.48
2017-09-08T09:11:04.256Z,42.29
2017-09-08T09:12:12.856Z,42.58
2017-09-08T09:13:21.456Z,42.48
2017-09-08T09:14:30.167Z,42.48
2017-09-08T09:15:38.773Z,42.48
2017-09-08T09:16:47.373Z,42.29
2017-09-08T09:17:55.972Z,42
2017-09-08T09:19:04.571Z,42.39
2017-09-08T09:20:13.183Z,42.39
2017-09-08T09:21:21.788Z,42.19
2017-09-08T09:22:30.389Z,42
2017-09-08T09:23:39.296Z,42.19
2017-09-08T09:24:47.897Z,42
2017-09-08T09:25:56.495Z,41.91
2017-09-08T09:27:05.405Z,41.81
2017-09-08T09:28:14.006Z,42.1
2017-09-08T09:29:22.926Z,41.81
2017-09-08T09:30:31.524Z,42
2017-09-08T09:31:40.125Z,41.81
2017-09-08T09:32:49.048Z,41.61
2017-09-08T09:33:57.648Z,41.61
2017-09-08T09:35:06.250Z,41.71
2017-09-08T09:36:14.852Z,41.71
2017-09-08T09:37:23.452Z,41.61
2017-09-08T09:38:32.055Z,41.54
2017-09-08T09:39:40.656Z,42.02
2017-09-08T09:40:49.258Z,42.02
2017-09-08T09:41:57.860Z,41.52
2017-09-08T09:43:06.460Z,41.73
2017-09-08T09:44:15.057Z,41.71
2017-09-08T09:45:23.656Z,41.81
2017-09-08T09:46:32.257Z,41.61
2017-09-08T09:47:40.862Z,41.91
2017-09-08T09:48:49.462Z,41.61
2017-09-08T09:49:58.068Z,42
2017-09-08T09:51:06.970Z,41.33
2017-09-08T09:52:15.567Z,41.81
2017-09-08T09:53:24.168Z,41.61
2017-09-08T09:54:32.768Z,41.71
2017-09-08T09:55:41.368Z,41.91
2017-09-08T09:56:49.966Z,42.1
2017-09-08T09:57:58.564Z,41.91
2017-09-08T09:59:07.161Z,42.12
2017-09-08T10:00:15.759Z,42.1
2017-09-08T10:01:24.361Z,41.61
2017-09-08T10:02:32.960Z,42.02
2017-09-08T10:03:41.561Z,42.02
2017-09-08T10:04:50.161Z,42.12
2017-09-08T10:05:58.758Z,41.73
2017-09-08T10:07:07.359Z,41.73
2017-09-08T10:08:15.961Z,41.71
2017-09-08T10:09:24.562Z,41.71
2017-09-08T10:10:33.163Z,41.73
2017-09-08T10:11:41.765Z,42.02
2017-09-08T10:12:50.398Z,42.1
2017-09-08T10:13:58.967Z,41.54
2017-09-08T10:15:07.571Z,42.02
2017-09-08T10:16:16.173Z,41.91
2017-09-08T10:17:24.774Z,41.81
2017-09-08T10:18:33.375Z,41.73
2017-09-08T10:19:42.282Z,41.54
2017-09-08T10:20:50.884Z,41.61
2017-09-08T10:21:59.482Z,42
2017-09-08T10:23:08.082Z,41.81
2017-09-08T10:24:16.684Z,41.71
2017-09-08T10:25:25.284Z,41.81
2017-09-08T10:26:34.192Z,41.81
2017-09-08T10:27:42.791Z,42.19
2017-09-08T10:28:51.392Z,42
2017-09-08T10:29:59.993Z,41.81
2017-09-08T10:31:08.591Z,41.91
2017-09-08T10:32:17.193Z,41.91
2017-09-08T10:33:26.101Z,42
2017-09-08T10:34:34.700Z,42
2017-09-08T10:35:43.304Z,42.1
2017-09-08T10:36:51.905Z,41.91
2017-09-08T10:38:00.510Z,42.19
2017-09-08T10:39:09.413Z,42.19
2017-09-08T10:40:18.013Z,42
2017-09-08T10:41:26.611Z,42.1
2017-09-08T10:42:35.213Z,42.1
2017-09-08T10:43:44.128Z,42.19
2017-09-08T10:44:52.732Z,42.1
2017-09-08T10:46:01.335Z,42.29
2017-09-08T10:47:09.934Z,42.19
2017-09-08T10:48:18.534Z,42.48
2017-09-08T10:49:27.135Z,42.48
2017-09-08T10:50:35.735Z,42.58
2017-09-08T10:51:44.336Z,42.39
2017-09-08T10:52:52.938Z,42.58
2017-09-08T10:54:01.541Z,42.68
2017-09-08T10:55:10.139Z,42.58
2017-09-08T10:56:18.742Z,42.48
2017-09-08T10:57:27.347Z,42.58
2017-09-08T10:58:35.946Z,42.58
2017-09-08T10:59:44.549Z,42.58
2017-09-08T11:00:53.150Z,42.58
2017-09-08T11:02:01.752Z,42.48
2017-09-08T11:03:10.355Z,42.48
2017-09-08T11:04:18.955Z,42.48
2017-09-08T11:05:27.555Z,42.48
2017-09-08T11:06:36.157Z,42.48
2017-09-08T11:07:44.757Z,42.58
2017-09-08T11:08:53.358Z,42.29
2017-09-08T11:10:01.962Z,42.58
2017-09-08T11:11:10.562Z,42.58
2017-09-08T11:12:19.161Z,42.68
2017-09-08T11:13:27.762Z,42.58
2017-09-08T11:14:36.364Z,42.68
2017-09-08T11:15:44.963Z,42.48
2017-09-08T11:16:53.562Z,42.39
2017-09-08T11:18:02.165Z,42.48
2017-09-08T11:19:11.069Z,42.39
2017-09-08T11:20:19.671Z,42.29
2017-09-08T11:21:28.270Z,42.97
2017-09-08T11:22:36.869Z,42.48
2017-09-08T11:23:45.470Z,42.29
2017-09-08T11:24:54.069Z,42.87
2017-09-08T11:26:02.669Z,42.48
2017-09-08T11:27:11.266Z,42.29
2017-09-08T11:28:19.864Z,42.87
2017-09-08T11:29:28.461Z,42.87
2017-09-08T11:30:37.057Z,42.77
2017-09-08T17:37:48.322Z,44.49
2017-09-08T17:38:57.655Z,44.87
2017-09-08T17:40:06.670Z,44.59
2017-09-08T17:41:16.013Z,44.59
2017-09-08T17:42:24.709Z,44.68
2017-09-08T17:43:33.408Z,44.68
2017-09-08T17:44:43.610Z,44.78
2017-09-08T17:45:54.314Z,44.87
2017-09-08T17:47:04.509Z,44.59
2017-09-08T17:48:14.077Z,44.49
2017-09-08T17:49:23.202Z,44.49
2017-09-08T17:50:33.554Z,44.68
2017-09-08T17:51:43.212Z,44.59
2017-09-08T17:52:52.017Z,44.39
2017-09-08T17:54:01.862Z,44.78
2017-09-08T17:55:11.540Z,44.49
2017-09-08T17:56:21.201Z,44.59
2017-09-08T17:57:30.867Z,44.49
2017-09-08T17:58:39.873Z,44.68
2017-09-08T17:59:48.571Z,44.59
2017-09-08T18:00:57.587Z,44.59
2017-09-08T18:02:07.246Z,44.87
2017-09-08T18:03:16.263Z,44.59
2017-09-08T18:04:25.282Z,44.87
2017-09-08T18:05:33.976Z,44.59
2017-09-08T18:06:43.453Z,44.68
2017-09-08T18:07:52.468Z,44.8
2017-09-08T18:09:01.880Z,44.51
2017-09-08T18:10:10.912Z,44.78
2017-09-08T18:11:19.597Z,44.51
2017-09-08T18:12:28.296Z,44.49
2017-09-08T18:13:37.953Z,44.8
2017-09-08T18:14:46.972Z,44.8
2017-09-08T18:15:55.989Z,44.78
2017-09-08T18:17:05.325Z,44.59
2017-09-08T18:18:15.299Z,44.78
2017-09-08T18:19:24.949Z,44.68
2017-09-08T18:20:34.608Z,44.51
2017-09-08T18:21:43.946Z,44.59
2017-09-08T18:22:52.958Z,44.59
2017-09-08T18:24:01.976Z,44.6
2017-09-08T18:25:10.991Z,44.59
2017-09-08T18:26:20.005Z,44.51
2017-09-08T18:27:28.702Z,44.8
2017-09-08T18:28:37.719Z,44.78
2017-09-08T18:29:46.735Z,44.8
2017-09-08T18:30:55.430Z,44.59
2017-09-08T18:32:04.775Z,44.8
2017-09-08T18:33:13.473Z,44.87
2017-09-08T18:34:22.814Z,44.6
2017-09-08T18:35:31.825Z,44.7
2017-09-08T18:36:41.169Z,44.78
2017-09-08T18:37:49.865Z,44.68
2017-09-08T18:38:58.562Z,44.49
2017-09-08T18:40:08.220Z,44.68
2017-09-08T18:41:17.239Z,44.59
2017-09-08T18:42:25.940Z,44.6
2017-09-08T18:43:34.639Z,44.6
2017-09-08T18:44:44.615Z,44.7
2017-09-08T18:45:53.953Z,44.68
2017-09-08T18:47:03.615Z,44.51
2017-09-08T18:48:12.951Z,44.68
2017-09-08T18:49:22.287Z,44.87
2017-09-08T18:50:31.622Z,44.78
2017-09-08T18:51:41.283Z,44.7
2017-09-08T18:52:50.938Z,44.7
2017-09-08T18:54:00.274Z,44.51
2017-09-08T18:55:09.299Z,44.59
2017-09-08T18:56:18.317Z,44.6
2017-09-08T18:57:27.333Z,44.7
2017-09-08T18:58:36.346Z,44.8
2017-09-08T18:59:45.682Z,44.51
2017-09-08T19:00:55.015Z,44.68
2017-09-08T19:02:04.030Z,44.8
2017-09-08T19:03:13.368Z,44.7
2017-09-08T19:04:22.709Z,44.8
2017-09-08T19:05:32.046Z,44.7
2017-09-08T19:06:41.062Z,44.8
2017-09-08T19:07:50.078Z,44.78
2017-09-08T19:08:59.418Z,44.7
2017-09-08T19:10:08.437Z,44.6
2017-09-08T19:11:18.413Z,44.51
2017-09-08T19:12:27.753Z,44.8
2017-09-08T19:13:36.451Z,44.51
2017-09-08T19:14:45.145Z,44.51
2017-09-08T19:15:53.845Z,44.6
2017-09-08T19:17:03.180Z,44.6
2017-09-08T19:18:12.515Z,44.6
2017-09-08T19:19:21.531Z,44.7
2017-09-08T19:20:30.549Z,44.8
2017-09-08T19:21:39.563Z,44.78
2017-09-08T19:22:48.581Z,44.8
2017-09-08T19:23:57.600Z,44.51
2017-09-08T19:25:06.935Z,44.6
2017-09-08T19:26:15.958Z,44.8
2017-09-08T19:27:24.975Z,44.51
2017-09-08T19:28:34.627Z,44.8
2017-09-08T19:29:43.641Z,44.51
2017-09-08T19:30:52.660Z,44.6
2017-09-08T19:32:02.020Z,44.8
2017-09-08T19:33:11.360Z,44.7
2017-09-08T19:34:20.374Z,44.51
2017-09-08T19:35:30.032Z,44.6
2017-09-08T19:36:38.732Z,44.7
2017-09-08T19:37:48.071Z,44.9
2017-09-08T19:38:57.727Z,44.78
2017-09-08T19:40:06.423Z,44.6
2017-09-08T19:41:15.758Z,44.68
2017-09-08T19:42:25.095Z,44.7
2017-09-08T19:43:34.113Z,44.8
2017-09-08T19:44:44.087Z,44.8
2017-09-08T19:45:52.782Z,44.8
2017-09-08T19:47:01.798Z,44.6
2017-09-08T19:48:10.855Z,44.7
2017-09-08T19:49:19.834Z,44.6
2017-09-08T19:50:29.172Z,44.6
2017-09-08T19:51:38.827Z,44.51
2017-09-08T19:52:48.165Z,44.7
2017-09-08T19:53:57.185Z,44.51
2017-09-08T19:55:06.204Z,44.42
2017-09-08T19:56:15.220Z,44.9
2017-09-08T19:57:24.877Z,44.6
2017-09-08T19:58:33.892Z,44.6
2017-09-08T19:59:42.909Z,44.51
2017-09-08T20:00:51.604Z,44.51
2017-09-08T20:02:00.623Z,44.8
2017-09-08T20:03:09.956Z,45
2017-09-08T20:04:18.971Z,44.6
2017-09-08T20:05:27.670Z,44.8
2017-09-08T20:06:37.004Z,44.9
2017-09-08T20:07:46.658Z,44.6
2017-09-08T20:08:56.311Z,44.9
2017-09-08T20:10:05.006Z,44.9
2017-09-08T20:11:13.703Z,44.7
2017-09-08T20:12:23.042Z,44.7
2017-09-08T20:13:32.059Z,44.6
2017-09-08T20:14:41.076Z,45.18
2017-09-08T20:15:49.768Z,45.09
2017-09-08T20:16:58.462Z,45
2017-09-08T20:18:08.436Z,45.09
2017-09-08T20:19:17.132Z,45.09
2017-09-08T20:20:25.828Z,44.9
2017-09-08T20:21:35.165Z,45
2017-09-08T20:22:43.865Z,44.9
2017-09-08T20:23:52.561Z,44.9
2017-09-08T20:25:01.582Z,45
2017-09-08T20:26:11.557Z,44.9
2017-09-08T20:27:20.574Z,45.09
2017-09-08T20:28:29.271Z,44.87
2017-09-08T20:29:38.605Z,45.09
2017-09-08T20:30:47.304Z,44.78
2017-09-08T20:31:56.001Z,44.7
2017-09-08T20:33:05.052Z,44.87
2017-09-08T20:34:14.389Z,44.78
2017-09-08T20:35:23.725Z,45.26
2017-09-08T20:36:32.745Z,44.78
2017-09-08T20:37:41.761Z,45.26
2017-09-08T20:38:51.415Z,45.18
2017-09-08T20:40:00.430Z,45.17
2017-09-08T20:41:09.446Z,44.97
2017-09-08T20:42:18.143Z,45.07
2017-09-08T20:43:27.479Z,45.07
2017-09-08T20:44:37.132Z,45.17
2017-09-08T20:45:46.148Z,44.97
2017-09-08T20:46:55.166Z,44.97
2017-09-08T20:48:04.183Z,45.07
2017-09-08T20:49:13.203Z,45
2017-09-08T20:50:22.218Z,44.87
2017-09-08T20:51:31.235Z,44.9
2017-09-08T20:52:40.253Z,45.26
2017-09-08T20:53:49.267Z,45.45
2017-09-08T20:54:57.963Z,45.07
2017-09-08T20:56:07.935Z,45.17
2017-09-08T20:57:17.598Z,44.87